sensor_id;sensor_type;location;lat;lon;timestamp;temperature;humidity
70867;HTU21D;58487;53.474;49.470;2022-10-31T00:02:13;8.29;80.24
70867;HTU21D;58487;53.474;49.470;2022-10-31T00:04:39;8.30;79.40
70867;HTU21D;58487;53.474;49.470;2022-10-31T00:07:05;8.29;80.83
70867;HTU21D;58487;53.474;49.470;2022-10-31T00:09:31;8.27;82.96
70867;HTU21D;58487;53.474;49.470;2022-10-31T00:11:57;8.27;81.61
70867;HTU21D;58487;53.474;49.470;2022-10-31T00:14:23;8.24;81.49
70867;HTU21D;58487;53.474;49.470;2022-10-31T00:16:49;8.20;78.59
70867;HTU21D;58487;53.474;49.470;2022-10-31T00:19:15;8.13;78.64
70867;HTU21D;58487;53.474;49.470;2022-10-31T00:21:42;8.11;77.36
70867;HTU21D;58487;53.474;49.470;2022-10-31T00:24:08;8.09;78.11
70867;HTU21D;58487;53.474;49.470;2022-10-31T00:26:34;8.09;78.54
70867;HTU21D;58487;53.474;49.470;2022-10-31T00:29:00;8.05;79.43
70867;HTU21D;58487;53.474;49.470;2022-10-31T00:31:26;8.01;77.98
70867;HTU21D;58487;53.474;49.470;2022-10-31T00:33:53;7.94;79.46
70867;HTU21D;58487;53.474;49.470;2022-10-31T00:36:19;7.87;77.37
70867;HTU21D;58487;53.474;49.470;2022-10-31T00:38:47;7.84;78.66
70867;HTU21D;58487;53.474;49.470;2022-10-31T00:41:14;7.84;79.50
70867;HTU21D;58487;53.474;49.470;2022-10-31T00:43:42;7.75;75.49
70867;HTU21D;58487;53.474;49.470;2022-10-31T00:46:09;7.73;75.34
70867;HTU21D;58487;53.474;49.470;2022-10-31T00:48:36;7.69;75.63
70867;HTU21D;58487;53.474;49.470;2022-10-31T00:51:02;7.67;76.09
70867;HTU21D;58487;53.474;49.470;2022-10-31T00:53:28;7.62;75.65
70867;HTU21D;58487;53.474;49.470;2022-10-31T00:55:54;7.58;75.05
70867;HTU21D;58487;53.474;49.470;2022-10-31T00:58:20;7.46;72.58
70867;HTU21D;58487;53.474;49.470;2022-10-31T01:00:48;7.45;73.14
70867;HTU21D;58487;53.474;49.470;2022-10-31T01:03:28;7.42;72.94
70867;HTU21D;58487;53.474;49.470;2022-10-31T01:08:25;7.37;72.29
70867;HTU21D;58487;53.474;49.470;2022-10-31T01:11:10;7.29;72.83
70867;HTU21D;58487;53.474;49.470;2022-10-31T01:13:36;7.25;72.02
70867;HTU21D;58487;53.474;49.470;2022-10-31T01:16:04;7.26;73.13
70867;HTU21D;58487;53.474;49.470;2022-10-31T01:18:30;7.17;72.58
70867;HTU21D;58487;53.474;49.470;2022-10-31T01:21:02;7.12;72.66
70867;HTU21D;58487;53.474;49.470;2022-10-31T01:23:29;7.05;70.42
70867;HTU21D;58487;53.474;49.470;2022-10-31T01:26:00;7.07;71.77
70867;HTU21D;58487;53.474;49.470;2022-10-31T01:28:26;7.02;71.51
70867;HTU21D;58487;53.474;49.470;2022-10-31T01:30:52;7.04;72.09
70867;HTU21D;58487;53.474;49.470;2022-10-31T01:33:18;7.04;72.04
70867;HTU21D;58487;53.474;49.470;2022-10-31T01:35:44;7.08;72.25
70867;HTU21D;58487;53.474;49.470;2022-10-31T01:38:10;7.03;71.57
70867;HTU21D;58487;53.474;49.470;2022-10-31T01:40:36;6.99;72.71
70867;HTU21D;58487;53.474;49.470;2022-10-31T01:43:02;6.97;68.57
70867;HTU21D;58487;53.474;49.470;2022-10-31T01:45:29;6.94;67.12
70867;HTU21D;58487;53.474;49.470;2022-10-31T01:47:55;6.90;67.22
70867;HTU21D;58487;53.474;49.470;2022-10-31T01:50:41;6.85;64.91
70867;HTU21D;58487;53.474;49.470;2022-10-31T01:53:09;6.81;65.70
70867;HTU21D;58487;53.474;49.470;2022-10-31T01:55:39;6.71;65.30
70867;HTU21D;58487;53.474;49.470;2022-10-31T01:58:12;6.65;65.59
70867;HTU21D;58487;53.474;49.470;2022-10-31T02:00:39;6.59;66.14
70867;HTU21D;58487;53.474;49.470;2022-10-31T02:03:08;6.58;66.88
70867;HTU21D;58487;53.474;49.470;2022-10-31T02:05:34;6.55;67.23
70867;HTU21D;58487;53.474;49.470;2022-10-31T02:08:13;6.64;67.38
70867;HTU21D;58487;53.474;49.470;2022-10-31T02:10:40;6.64;67.67
70867;HTU21D;58487;53.474;49.470;2022-10-31T02:13:08;6.64;68.14
70867;HTU21D;58487;53.474;49.470;2022-10-31T02:15:36;6.61;67.84
70867;HTU21D;58487;53.474;49.470;2022-10-31T02:18:04;6.60;68.39
70867;HTU21D;58487;53.474;49.470;2022-10-31T02:32:38;6.29;70.55
70867;HTU21D;58487;53.474;49.470;2022-10-31T02:35:27;6.16;71.03
70867;HTU21D;58487;53.474;49.470;2022-10-31T02:38:13;6.12;72.25
70867;HTU21D;58487;53.474;49.470;2022-10-31T02:40:54;6.23;72.20
70867;HTU21D;58487;53.474;49.470;2022-10-31T02:43:45;6.27;72.74
70867;HTU21D;58487;53.474;49.470;2022-10-31T02:46:34;6.29;72.64
70867;HTU21D;58487;53.474;49.470;2022-10-31T02:49:10;6.31;73.02
70867;HTU21D;58487;53.474;49.470;2022-10-31T02:51:38;6.33;73.44
70867;HTU21D;58487;53.474;49.470;2022-10-31T02:54:04;6.28;74.02
70867;HTU21D;58487;53.474;49.470;2022-10-31T02:56:30;6.16;71.17
70867;HTU21D;58487;53.474;49.470;2022-10-31T02:58:59;6.08;71.37
70867;HTU21D;58487;53.474;49.470;2022-10-31T03:10:54;5.07;63.59
70867;HTU21D;58487;53.474;49.470;2022-10-31T03:15:53;4.96;65.25
70867;HTU21D;58487;53.474;49.470;2022-10-31T03:18:30;4.84;65.92
70867;HTU21D;58487;53.474;49.470;2022-10-31T03:21:13;4.77;66.17
70867;HTU21D;58487;53.474;49.470;2022-10-31T03:23:43;4.77;66.30
70867;HTU21D;58487;53.474;49.470;2022-10-31T03:26:11;4.69;65.14
70867;HTU21D;58487;53.474;49.470;2022-10-31T03:28:48;4.61;65.91
70867;HTU21D;58487;53.474;49.470;2022-10-31T03:31:18;4.58;66.89
70867;HTU21D;58487;53.474;49.470;2022-10-31T03:33:46;4.54;66.88
70867;HTU21D;58487;53.474;49.470;2022-10-31T03:36:14;4.44;67.97
70867;HTU21D;58487;53.474;49.470;2022-10-31T03:38:42;4.46;68.43
70867;HTU21D;58487;53.474;49.470;2022-10-31T03:41:14;4.45;68.86
70867;HTU21D;58487;53.474;49.470;2022-10-31T03:43:46;4.46;69.07
70867;HTU21D;58487;53.474;49.470;2022-10-31T03:46:14;4.37;69.43
70867;HTU21D;58487;53.474;49.470;2022-10-31T03:48:40;4.39;69.78
70867;HTU21D;58487;53.474;49.470;2022-10-31T03:51:18;4.48;70.10
70867;HTU21D;58487;53.474;49.470;2022-10-31T03:53:56;4.38;70.24
70867;HTU21D;58487;53.474;49.470;2022-10-31T03:56:35;4.32;70.42
70867;HTU21D;58487;53.474;49.470;2022-10-31T03:59:19;4.39;70.15
70867;HTU21D;58487;53.474;49.470;2022-10-31T04:01:49;4.43;70.18
70867;HTU21D;58487;53.474;49.470;2022-10-31T04:04:16;4.44;70.03
70867;HTU21D;58487;53.474;49.470;2022-10-31T04:06:44;4.33;70.73
70867;HTU21D;58487;53.474;49.470;2022-10-31T04:09:13;4.35;70.93
70867;HTU21D;58487;53.474;49.470;2022-10-31T04:11:47;4.41;70.00
70867;HTU21D;58487;53.474;49.470;2022-10-31T04:14:15;4.33;70.76
70867;HTU21D;58487;53.474;49.470;2022-10-31T04:16:42;4.24;70.51
70867;HTU21D;58487;53.474;49.470;2022-10-31T04:19:12;4.30;69.97
70867;HTU21D;58487;53.474;49.470;2022-10-31T04:21:39;4.28;70.18
70867;HTU21D;58487;53.474;49.470;2022-10-31T04:24:05;4.28;70.49
70867;HTU21D;58487;53.474;49.470;2022-10-31T04:26:31;4.24;70.21
70867;HTU21D;58487;53.474;49.470;2022-10-31T04:28:57;4.24;70.32
70867;HTU21D;58487;53.474;49.470;2022-10-31T04:31:23;4.16;70.08
70867;HTU21D;58487;53.474;49.470;2022-10-31T04:33:49;4.16;70.60
70867;HTU21D;58487;53.474;49.470;2022-10-31T04:36:15;4.08;70.41
70867;HTU21D;58487;53.474;49.470;2022-10-31T04:38:41;4.07;70.74
70867;HTU21D;58487;53.474;49.470;2022-10-31T04:41:07;4.13;70.66
70867;HTU21D;58487;53.474;49.470;2022-10-31T04:43:33;4.09;71.18
70867;HTU21D;58487;53.474;49.470;2022-10-31T04:45:59;4.08;71.25
70867;HTU21D;58487;53.474;49.470;2022-10-31T04:48:26;4.06;71.00
70867;HTU21D;58487;53.474;49.470;2022-10-31T04:50:52;4.04;71.15
70867;HTU21D;58487;53.474;49.470;2022-10-31T04:53:18;4.04;71.38
70867;HTU21D;58487;53.474;49.470;2022-10-31T04:55:44;4.07;71.29
70867;HTU21D;58487;53.474;49.470;2022-10-31T04:58:10;4.18;71.37
70867;HTU21D;58487;53.474;49.470;2022-10-31T05:00:36;4.13;71.15
70867;HTU21D;58487;53.474;49.470;2022-10-31T05:03:02;4.13;71.24
70867;HTU21D;58487;53.474;49.470;2022-10-31T05:05:30;4.02;71.26
70867;HTU21D;58487;53.474;49.470;2022-10-31T05:07:57;3.99;71.83
70867;HTU21D;58487;53.474;49.470;2022-10-31T05:10:26;4.02;71.22
70867;HTU21D;58487;53.474;49.470;2022-10-31T05:12:55;3.95;72.46
70867;HTU21D;58487;53.474;49.470;2022-10-31T05:15:23;4.00;71.59
70867;HTU21D;58487;53.474;49.470;2022-10-31T05:17:49;4.17;71.13
70867;HTU21D;58487;53.474;49.470;2022-10-31T05:20:18;4.07;71.13
70867;HTU21D;58487;53.474;49.470;2022-10-31T05:22:49;4.06;70.45
70867;HTU21D;58487;53.474;49.470;2022-10-31T05:25:15;4.06;70.17
70867;HTU21D;58487;53.474;49.470;2022-10-31T05:27:43;3.98;70.90
70867;HTU21D;58487;53.474;49.470;2022-10-31T05:30:11;4.01;70.53
70867;HTU21D;58487;53.474;49.470;2022-10-31T05:32:45;4.08;70.45
70867;HTU21D;58487;53.474;49.470;2022-10-31T05:35:23;4.10;70.60
70867;HTU21D;58487;53.474;49.470;2022-10-31T05:37:49;4.08;70.59
70867;HTU21D;58487;53.474;49.470;2022-10-31T05:40:17;4.03;70.14
70867;HTU21D;58487;53.474;49.470;2022-10-31T05:42:43;3.93;70.30
70867;HTU21D;58487;53.474;49.470;2022-10-31T05:45:12;4.03;70.03
70867;HTU21D;58487;53.474;49.470;2022-10-31T05:47:38;4.03;70.10
70867;HTU21D;58487;53.474;49.470;2022-10-31T05:50:05;3.99;70.18
70867;HTU21D;58487;53.474;49.470;2022-10-31T05:52:32;4.08;69.88
70867;HTU21D;58487;53.474;49.470;2022-10-31T05:54:58;4.16;69.52
70867;HTU21D;58487;53.474;49.470;2022-10-31T05:57:24;4.13;68.98
70867;HTU21D;58487;53.474;49.470;2022-10-31T05:59:50;4.18;68.26
70867;HTU21D;58487;53.474;49.470;2022-10-31T06:02:20;4.26;67.68
70867;HTU21D;58487;53.474;49.470;2022-10-31T06:04:46;4.39;67.94
70867;HTU21D;58487;53.474;49.470;2022-10-31T06:07:13;4.46;67.13
70867;HTU21D;58487;53.474;49.470;2022-10-31T06:09:39;4.48;66.76
70867;HTU21D;58487;53.474;49.470;2022-10-31T06:12:05;4.36;65.83
70867;HTU21D;58487;53.474;49.470;2022-10-31T06:14:31;4.35;66.04
70867;HTU21D;58487;53.474;49.470;2022-10-31T06:16:57;4.05;67.39
70867;HTU21D;58487;53.474;49.470;2022-10-31T06:19:23;4.18;67.57
70867;HTU21D;58487;53.474;49.470;2022-10-31T06:21:49;4.28;66.45
70867;HTU21D;58487;53.474;49.470;2022-10-31T06:24:15;4.31;65.69
70867;HTU21D;58487;53.474;49.470;2022-10-31T06:26:41;4.24;65.70
70867;HTU21D;58487;53.474;49.470;2022-10-31T06:29:07;4.21;66.73
70867;HTU21D;58487;53.474;49.470;2022-10-31T06:31:33;4.19;65.32
70867;HTU21D;58487;53.474;49.470;2022-10-31T06:33:59;4.10;65.96
70867;HTU21D;58487;53.474;49.470;2022-10-31T06:36:25;4.16;66.09
70867;HTU21D;58487;53.474;49.470;2022-10-31T06:38:51;4.29;65.72
70867;HTU21D;58487;53.474;49.470;2022-10-31T06:41:17;4.13;66.16
70867;HTU21D;58487;53.474;49.470;2022-10-31T06:43:46;4.28;65.19
70867;HTU21D;58487;53.474;49.470;2022-10-31T06:46:13;4.27;65.13
70867;HTU21D;58487;53.474;49.470;2022-10-31T06:48:40;4.23;64.72
70867;HTU21D;58487;53.474;49.470;2022-10-31T06:51:07;4.10;63.51
70867;HTU21D;58487;53.474;49.470;2022-10-31T06:53:33;4.05;65.30
70867;HTU21D;58487;53.474;49.470;2022-10-31T06:55:59;4.10;64.71
70867;HTU21D;58487;53.474;49.470;2022-10-31T06:58:25;4.10;65.66
70867;HTU21D;58487;53.474;49.470;2022-10-31T07:00:52;4.19;64.97
70867;HTU21D;58487;53.474;49.470;2022-10-31T07:03:18;4.31;64.63
70867;HTU21D;58487;53.474;49.470;2022-10-31T07:05:46;4.06;63.51
70867;HTU21D;58487;53.474;49.470;2022-10-31T07:08:13;4.24;64.38
70867;HTU21D;58487;53.474;49.470;2022-10-31T07:10:40;4.22;64.00
70867;HTU21D;58487;53.474;49.470;2022-10-31T07:13:13;4.29;63.58
70867;HTU21D;58487;53.474;49.470;2022-10-31T07:15:41;4.24;63.89
70867;HTU21D;58487;53.474;49.470;2022-10-31T07:18:09;4.29;63.56
70867;HTU21D;58487;53.474;49.470;2022-10-31T07:20:36;4.15;64.14
70867;HTU21D;58487;53.474;49.470;2022-10-31T07:23:02;4.15;64.24
70867;HTU21D;58487;53.474;49.470;2022-10-31T07:25:29;4.02;64.30
70867;HTU21D;58487;53.474;49.470;2022-10-31T07:27:55;3.89;64.91
70867;HTU21D;58487;53.474;49.470;2022-10-31T07:30:21;4.00;64.14
70867;HTU21D;58487;53.474;49.470;2022-10-31T07:32:48;3.90;65.09
70867;HTU21D;58487;53.474;49.470;2022-10-31T07:35:18;3.85;65.32
70867;HTU21D;58487;53.474;49.470;2022-10-31T07:37:44;3.64;65.85
70867;HTU21D;58487;53.474;49.470;2022-10-31T07:40:11;3.78;65.55
70867;HTU21D;58487;53.474;49.470;2022-10-31T07:42:39;3.70;65.48
70867;HTU21D;58487;53.474;49.470;2022-10-31T07:45:07;3.78;65.85
70867;HTU21D;58487;53.474;49.470;2022-10-31T07:50:06;3.70;66.17
70867;HTU21D;58487;53.474;49.470;2022-10-31T07:52:32;3.71;65.91
70867;HTU21D;58487;53.474;49.470;2022-10-31T07:54:58;3.69;65.47
70867;HTU21D;58487;53.474;49.470;2022-10-31T07:57:24;3.63;64.85
70867;HTU21D;58487;53.474;49.470;2022-10-31T07:59:50;3.67;64.78
70867;HTU21D;58487;53.474;49.470;2022-10-31T08:02:16;3.70;64.43
70867;HTU21D;58487;53.474;49.470;2022-10-31T08:04:43;3.60;64.05
70867;HTU21D;58487;53.474;49.470;2022-10-31T08:07:09;3.63;64.45
70867;HTU21D;58487;53.474;49.470;2022-10-31T08:09:35;3.82;64.05
70867;HTU21D;58487;53.474;49.470;2022-10-31T08:12:01;3.77;63.66
70867;HTU21D;58487;53.474;49.470;2022-10-31T08:14:27;3.90;63.35
70867;HTU21D;58487;53.474;49.470;2022-10-31T08:16:53;3.97;62.83
70867;HTU21D;58487;53.474;49.470;2022-10-31T08:19:20;4.16;63.16
70867;HTU21D;58487;53.474;49.470;2022-10-31T08:21:46;4.26;62.54
70867;HTU21D;58487;53.474;49.470;2022-10-31T08:24:12;4.16;62.44
70867;HTU21D;58487;53.474;49.470;2022-10-31T08:26:38;4.19;62.37
70867;HTU21D;58487;53.474;49.470;2022-10-31T08:29:04;4.22;62.24
70867;HTU21D;58487;53.474;49.470;2022-10-31T08:31:30;4.31;61.54
70867;HTU21D;58487;53.474;49.470;2022-10-31T08:33:56;4.31;61.03
70867;HTU21D;58487;53.474;49.470;2022-10-31T08:36:22;4.45;60.60
70867;HTU21D;58487;53.474;49.470;2022-10-31T08:38:48;4.48;60.28
70867;HTU21D;58487;53.474;49.470;2022-10-31T08:41:14;4.58;60.85
70867;HTU21D;58487;53.474;49.470;2022-10-31T08:43:40;4.79;58.92
70867;HTU21D;58487;53.474;49.470;2022-10-31T08:46:06;4.82;58.43
70867;HTU21D;58487;53.474;49.470;2022-10-31T08:48:33;4.76;57.93
70867;HTU21D;58487;53.474;49.470;2022-10-31T08:50:59;4.67;58.81
70867;HTU21D;58487;53.474;49.470;2022-10-31T08:53:26;4.79;58.67
70867;HTU21D;58487;53.474;49.470;2022-10-31T08:55:55;4.77;58.08
70867;HTU21D;58487;53.474;49.470;2022-10-31T08:58:22;4.81;58.62
70867;HTU21D;58487;53.474;49.470;2022-10-31T09:00:50;4.93;58.29
70867;HTU21D;58487;53.474;49.470;2022-10-31T09:03:18;4.98;58.32
70867;HTU21D;58487;53.474;49.470;2022-10-31T09:05:44;5.04;58.13
70867;HTU21D;58487;53.474;49.470;2022-10-31T09:08:12;4.89;57.25
70867;HTU21D;58487;53.474;49.470;2022-10-31T09:10:38;4.82;57.39
70867;HTU21D;58487;53.474;49.470;2022-10-31T09:13:08;4.72;58.93
70867;HTU21D;58487;53.474;49.470;2022-10-31T09:15:37;4.76;58.90
70867;HTU21D;58487;53.474;49.470;2022-10-31T09:18:07;5.01;58.11
70867;HTU21D;58487;53.474;49.470;2022-10-31T09:20:35;5.61;56.65
70867;HTU21D;58487;53.474;49.470;2022-10-31T09:23:07;5.96;55.23
70867;HTU21D;58487;53.474;49.470;2022-10-31T09:25:34;5.89;54.97
70867;HTU21D;58487;53.474;49.470;2022-10-31T09:28:03;5.64;56.07
70867;HTU21D;58487;53.474;49.470;2022-10-31T09:30:31;5.56;56.87
70867;HTU21D;58487;53.474;49.470;2022-10-31T09:32:59;5.51;57.88
70867;HTU21D;58487;53.474;49.470;2022-10-31T09:35:26;5.52;57.75
70867;HTU21D;58487;53.474;49.470;2022-10-31T09:37:56;5.54;56.03
70867;HTU21D;58487;53.474;49.470;2022-10-31T09:40:27;5.45;56.84
70867;HTU21D;58487;53.474;49.470;2022-10-31T09:51:46;4.93;59.03
70867;HTU21D;58487;53.474;49.470;2022-10-31T09:54:59;4.87;58.75
70867;HTU21D;58487;53.474;49.470;2022-10-31T09:57:00;4.84;57.87
70867;HTU21D;58487;53.474;49.470;2022-10-31T09:59:37;4.66;57.75
70867;HTU21D;58487;53.474;49.470;2022-10-31T10:02:21;4.91;58.16
70867;HTU21D;58487;53.474;49.470;2022-10-31T10:04:54;4.82;56.61
70867;HTU21D;58487;53.474;49.470;2022-10-31T10:07:29;4.94;56.39
70867;HTU21D;58487;53.474;49.470;2022-10-31T10:10:00;5.07;55.67
70867;HTU21D;58487;53.474;49.470;2022-10-31T10:12:40;5.03;54.87
70867;HTU21D;58487;53.474;49.470;2022-10-31T10:15:24;5.25;54.52
70867;HTU21D;58487;53.474;49.470;2022-10-31T10:20:30;5.30;52.40
70867;HTU21D;58487;53.474;49.470;2022-10-31T10:25:48;5.53;52.02
70867;HTU21D;58487;53.474;49.470;2022-10-31T10:28:26;5.48;49.53
70867;HTU21D;58487;53.474;49.470;2022-10-31T10:30:58;5.33;50.27
70867;HTU21D;58487;53.474;49.470;2022-10-31T10:33:35;5.34;49.91
70867;HTU21D;58487;53.474;49.470;2022-10-31T10:36:06;5.41;51.45
70867;HTU21D;58487;53.474;49.470;2022-10-31T10:41:18;5.38;51.75
70867;HTU21D;58487;53.474;49.470;2022-10-31T10:43:44;5.35;52.41
70867;HTU21D;58487;53.474;49.470;2022-10-31T10:49:06;5.46;52.47
70867;HTU21D;58487;53.474;49.470;2022-10-31T10:54:54;5.27;52.99
70867;HTU21D;58487;53.474;49.470;2022-10-31T10:57:27;5.28;53.11
70867;HTU21D;58487;53.474;49.470;2022-10-31T10:59:55;5.35;53.30
70867;HTU21D;58487;53.474;49.470;2022-10-31T11:02:25;5.43;53.03
70867;HTU21D;58487;53.474;49.470;2022-10-31T11:04:57;5.26;51.95
70867;HTU21D;58487;53.474;49.470;2022-10-31T11:07:23;5.24;52.75
70867;HTU21D;58487;53.474;49.470;2022-10-31T11:10:03;5.37;53.19
70867;HTU21D;58487;53.474;49.470;2022-10-31T11:12:32;5.24;52.11
70867;HTU21D;58487;53.474;49.470;2022-10-31T11:15:02;5.21;51.65
70867;HTU21D;58487;53.474;49.470;2022-10-31T11:17:33;5.05;51.41
70867;HTU21D;58487;53.474;49.470;2022-10-31T11:22:38;5.09;50.16
70867;HTU21D;58487;53.474;49.470;2022-10-31T11:25:25;5.01;49.11
70867;HTU21D;58487;53.474;49.470;2022-10-31T11:28:03;5.13;50.34
70867;HTU21D;58487;53.474;49.470;2022-10-31T11:30:31;5.16;50.12
70867;HTU21D;58487;53.474;49.470;2022-10-31T11:33:01;5.10;50.85
70867;HTU21D;58487;53.474;49.470;2022-10-31T11:35:28;5.19;52.02
70867;HTU21D;58487;53.474;49.470;2022-10-31T11:37:58;5.24;50.97
70867;HTU21D;58487;53.474;49.470;2022-10-31T11:40:26;5.24;52.34
70867;HTU21D;58487;53.474;49.470;2022-10-31T11:42:56;5.32;51.21
70867;HTU21D;58487;53.474;49.470;2022-10-31T11:47:51;5.30;50.92
70867;HTU21D;58487;53.474;49.470;2022-10-31T11:50:37;5.32;50.79
70867;HTU21D;58487;53.474;49.470;2022-10-31T11:53:16;5.22;51.02
70867;HTU21D;58487;53.474;49.470;2022-10-31T11:55:45;5.12;51.09
70867;HTU21D;58487;53.474;49.470;2022-10-31T11:58:25;4.98;52.07
70867;HTU21D;58487;53.474;49.470;2022-10-31T12:00:54;4.94;52.32
70867;HTU21D;58487;53.474;49.470;2022-10-31T12:05:54;4.83;53.15
70867;HTU21D;58487;53.474;49.470;2022-10-31T12:08:21;4.90;53.59
70867;HTU21D;58487;53.474;49.470;2022-10-31T12:11:10;5.00;52.08
70867;HTU21D;58487;53.474;49.470;2022-10-31T12:13:44;5.06;52.94
70867;HTU21D;58487;53.474;49.470;2022-10-31T12:19:12;4.95;52.78
70867;HTU21D;58487;53.474;49.470;2022-10-31T12:43:16;4.62;57.36
70867;HTU21D;58487;53.474;49.470;2022-10-31T12:45:55;4.45;58.60
70867;HTU21D;58487;53.474;49.470;2022-10-31T12:48:41;4.47;58.67
70867;HTU21D;58487;53.474;49.470;2022-10-31T12:54:17;4.39;57.42
70867;HTU21D;58487;53.474;49.470;2022-10-31T12:57:03;4.41;57.73
70867;HTU21D;58487;53.474;49.470;2022-10-31T12:59:41;4.35;58.08
70867;HTU21D;58487;53.474;49.470;2022-10-31T13:05:39;4.38;57.90
70867;HTU21D;58487;53.474;49.470;2022-10-31T13:08:11;4.37;58.36
70867;HTU21D;58487;53.474;49.470;2022-10-31T13:10:43;4.38;58.89
70867;HTU21D;58487;53.474;49.470;2022-10-31T13:16:16;4.47;58.70
70867;HTU21D;58487;53.474;49.470;2022-10-31T13:18:53;4.43;58.99
70867;HTU21D;58487;53.474;49.470;2022-10-31T13:21:23;4.35;59.09
70867;HTU21D;58487;53.474;49.470;2022-10-31T13:23:51;4.37;59.27
70867;HTU21D;58487;53.474;49.470;2022-10-31T13:29:20;4.32;60.02
70867;HTU21D;58487;53.474;49.470;2022-10-31T13:31:47;4.34;60.23
70867;HTU21D;58487;53.474;49.470;2022-10-31T13:34:22;4.36;60.23
70867;HTU21D;58487;53.474;49.470;2022-10-31T13:37:03;4.30;59.83
70867;HTU21D;58487;53.474;49.470;2022-10-31T13:42:23;4.23;60.70
70867;HTU21D;58487;53.474;49.470;2022-10-31T13:44:50;4.27;60.43
70867;HTU21D;58487;53.474;49.470;2022-10-31T13:47:25;4.26;60.62
70867;HTU21D;58487;53.474;49.470;2022-10-31T13:50:06;4.41;60.51
70867;HTU21D;58487;53.474;49.470;2022-10-31T13:52:47;4.36;60.57
70867;HTU21D;58487;53.474;49.470;2022-10-31T13:58:36;4.20;61.36
70867;HTU21D;58487;53.474;49.470;2022-10-31T14:01:19;4.23;61.12
70867;HTU21D;58487;53.474;49.470;2022-10-31T14:09:52;4.22;61.63
70867;HTU21D;58487;53.474;49.470;2022-10-31T14:12:38;4.29;61.57
70867;HTU21D;58487;53.474;49.470;2022-10-31T14:15:19;4.27;61.70
70867;HTU21D;58487;53.474;49.470;2022-10-31T14:17:48;4.31;61.11
70867;HTU21D;58487;53.474;49.470;2022-10-31T14:22:43;4.26;62.31
70867;HTU21D;58487;53.474;49.470;2022-10-31T14:27:56;4.20;61.77
70867;HTU21D;58487;53.474;49.470;2022-10-31T14:30:25;4.20;62.03
70867;HTU21D;58487;53.474;49.470;2022-10-31T14:32:58;4.27;62.08
70867;HTU21D;58487;53.474;49.470;2022-10-31T14:35:35;4.28;61.83
70867;HTU21D;58487;53.474;49.470;2022-10-31T14:40:53;3.95;62.86
70867;HTU21D;58487;53.474;49.470;2022-10-31T14:43:39;3.91;63.28
70867;HTU21D;58487;53.474;49.470;2022-10-31T14:51:48;3.80;63.49
70867;HTU21D;58487;53.474;49.470;2022-10-31T14:54:30;3.77;63.41
70867;HTU21D;58487;53.474;49.470;2022-10-31T14:57:04;3.75;63.69
70867;HTU21D;58487;53.474;49.470;2022-10-31T14:59:33;3.74;64.13
70867;HTU21D;58487;53.474;49.470;2022-10-31T15:04:35;3.73;64.08
70867;HTU21D;58487;53.474;49.470;2022-10-31T15:09:35;3.74;63.50
70867;HTU21D;58487;53.474;49.470;2022-10-31T15:14:46;3.69;63.18
70867;HTU21D;58487;53.474;49.470;2022-10-31T15:17:12;3.77;63.11
70867;HTU21D;58487;53.474;49.470;2022-10-31T15:19:38;3.72;62.24
70867;HTU21D;58487;53.474;49.470;2022-10-31T15:22:05;3.64;62.66
70867;HTU21D;58487;53.474;49.470;2022-10-31T15:24:36;3.64;62.43
70867;HTU21D;58487;53.474;49.470;2022-10-31T15:27:03;3.67;62.27
70867;HTU21D;58487;53.474;49.470;2022-10-31T15:29:29;3.64;62.81
70867;HTU21D;58487;53.474;49.470;2022-10-31T15:32:01;3.61;62.25
70867;HTU21D;58487;53.474;49.470;2022-10-31T15:34:35;3.64;62.84
70867;HTU21D;58487;53.474;49.470;2022-10-31T15:37:03;3.71;62.89
70867;HTU21D;58487;53.474;49.470;2022-10-31T15:39:29;3.70;62.23
70867;HTU21D;58487;53.474;49.470;2022-10-31T15:41:57;3.67;62.44
70867;HTU21D;58487;53.474;49.470;2022-10-31T15:44:32;3.70;62.72
70867;HTU21D;58487;53.474;49.470;2022-10-31T15:47:04;3.70;62.47
70867;HTU21D;58487;53.474;49.470;2022-10-31T15:49:36;3.67;61.94
70867;HTU21D;58487;53.474;49.470;2022-10-31T15:52:37;3.68;62.38
70867;HTU21D;58487;53.474;49.470;2022-10-31T15:57:32;3.67;62.42
70867;HTU21D;58487;53.474;49.470;2022-10-31T15:59:59;3.70;62.32
70867;HTU21D;58487;53.474;49.470;2022-10-31T16:02:26;3.68;62.34
70867;HTU21D;58487;53.474;49.470;2022-10-31T16:04:58;3.70;62.36
70867;HTU21D;58487;53.474;49.470;2022-10-31T16:07:25;3.76;62.27
70867;HTU21D;58487;53.474;49.470;2022-10-31T16:12:20;3.79;62.12
70867;HTU21D;58487;53.474;49.470;2022-10-31T16:14:47;3.83;61.86
70867;HTU21D;58487;53.474;49.470;2022-10-31T16:17:15;3.92;61.54
70867;HTU21D;58487;53.474;49.470;2022-10-31T16:22:38;3.91;61.31
70867;HTU21D;58487;53.474;49.470;2022-10-31T16:25:16;3.91;61.01
70867;HTU21D;58487;53.474;49.470;2022-10-31T16:27:50;3.83;61.45
70867;HTU21D;58487;53.474;49.470;2022-10-31T16:30:42;3.82;61.14
70867;HTU21D;58487;53.474;49.470;2022-10-31T16:33:32;3.74;61.74
70867;HTU21D;58487;53.474;49.470;2022-10-31T16:38:54;3.56;61.41
70867;HTU21D;58487;53.474;49.470;2022-10-31T16:41:21;3.56;62.01
70867;HTU21D;58487;53.474;49.470;2022-10-31T16:43:47;3.56;61.96
70867;HTU21D;58487;53.474;49.470;2022-10-31T16:46:15;3.56;62.18
70867;HTU21D;58487;53.474;49.470;2022-10-31T16:48:41;3.52;61.50
70867;HTU21D;58487;53.474;49.470;2022-10-31T16:51:07;3.45;61.66
70867;HTU21D;58487;53.474;49.470;2022-10-31T16:53:33;3.41;61.73
70867;HTU21D;58487;53.474;49.470;2022-10-31T16:56:02;3.45;62.10
70867;HTU21D;58487;53.474;49.470;2022-10-31T16:58:31;3.44;61.89
70867;HTU21D;58487;53.474;49.470;2022-10-31T17:01:04;3.50;61.74
70867;HTU21D;58487;53.474;49.470;2022-10-31T17:03:34;3.47;61.67
70867;HTU21D;58487;53.474;49.470;2022-10-31T17:06:01;3.46;61.75
70867;HTU21D;58487;53.474;49.470;2022-10-31T17:08:27;3.44;61.76
70867;HTU21D;58487;53.474;49.470;2022-10-31T17:10:54;3.43;62.08
70867;HTU21D;58487;53.474;49.470;2022-10-31T17:13:23;3.50;62.12
70867;HTU21D;58487;53.474;49.470;2022-10-31T17:15:53;3.48;62.60
70867;HTU21D;58487;53.474;49.470;2022-10-31T17:18:20;3.45;62.12
70867;HTU21D;58487;53.474;49.470;2022-10-31T17:20:47;3.46;61.89
70867;HTU21D;58487;53.474;49.470;2022-10-31T17:23:14;3.45;62.27
70867;HTU21D;58487;53.474;49.470;2022-10-31T17:25:41;3.45;62.31
70867;HTU21D;58487;53.474;49.470;2022-10-31T17:28:10;3.44;62.31
70867;HTU21D;58487;53.474;49.470;2022-10-31T17:30:38;3.42;62.16
70867;HTU21D;58487;53.474;49.470;2022-10-31T17:33:05;3.43;62.61
70867;HTU21D;58487;53.474;49.470;2022-10-31T17:35:31;3.42;62.81
70867;HTU21D;58487;53.474;49.470;2022-10-31T17:37:58;3.41;62.86
70867;HTU21D;58487;53.474;49.470;2022-10-31T17:40:24;3.43;62.47
70867;HTU21D;58487;53.474;49.470;2022-10-31T17:42:55;3.43;62.60
70867;HTU21D;58487;53.474;49.470;2022-10-31T17:45:24;3.44;62.63
70867;HTU21D;58487;53.474;49.470;2022-10-31T17:47:51;3.46;62.88
70867;HTU21D;58487;53.474;49.470;2022-10-31T17:50:22;3.54;62.65
70867;HTU21D;58487;53.474;49.470;2022-10-31T17:52:48;3.48;62.68